createdAt,value
2019-02-25T00:00:49.967Z,12.25
2019-02-25T00:03:18.667Z,10.53
2019-02-25T00:05:47.395Z,14.33
2019-02-25T00:08:16.229Z,13.65
2019-02-25T00:10:44.965Z,15.23
2019-02-25T00:13:13.791Z,17.77
2019-02-25T00:15:42.515Z,17.75
2019-02-25T00:18:11.189Z,15.40
2019-02-25T00:20:39.873Z,11.10
2019-02-25T00:23:08.263Z,17.25
2019-02-25T00:25:36.948Z,17.02
2019-02-25T00:28:05.668Z,14.90
2019-02-25T00:30:34.408Z,27.00
2019-02-25T00:33:03.361Z,22.25
2019-02-25T00:35:32.157Z,15.15
2019-02-25T00:38:00.873Z,12.70
2019-02-25T00:40:29.606Z,15.63
2019-02-25T00:42:58.260Z,18.73
2019-02-25T00:45:26.593Z,11.83
2019-02-25T00:47:55.310Z,16.50
2019-02-25T00:50:24.005Z,17.85
2019-02-25T00:52:52.689Z,14.95
2019-02-25T00:55:21.937Z,16.75
2019-02-25T00:57:50.660Z,16.55
2019-02-25T01:00:19.426Z,12.15
2019-02-25T01:02:48.333Z,18.50
2019-02-25T01:05:16.713Z,11.55
2019-02-25T01:07:45.419Z,32.13
2019-02-25T01:10:14.564Z,14.20
2019-02-25T01:12:43.830Z,13.60
2019-02-25T01:15:12.501Z,13.40
2019-02-25T01:17:41.437Z,20.23
2019-02-25T01:20:10.199Z,17.17
2019-02-25T01:22:38.826Z,15.78
2019-02-25T01:25:08.619Z,14.90
2019-02-25T01:27:36.882Z,18.23
2019-02-25T01:30:07.872Z,12.60
2019-02-25T01:32:37.265Z,13.00
2019-02-25T01:35:07.249Z,16.32
2019-02-25T01:37:36.258Z,21.57
2019-02-25T01:40:05.429Z,12.30
2019-02-25T01:42:34.104Z,12.88
2019-02-25T01:45:02.873Z,14.45
2019-02-25T01:47:31.532Z,24.40
2019-02-25T01:49:59.821Z,15.08
2019-02-25T01:52:28.776Z,11.35
2019-02-25T01:54:57.426Z,14.23
2019-02-25T01:57:26.082Z,15.10
2019-02-25T01:59:54.725Z,20.30
2019-02-25T02:02:23.378Z,12.78
2019-02-25T02:04:52.283Z,12.73
2019-02-25T02:07:21.100Z,14.75
2019-02-25T02:09:49.825Z,16.95
2019-02-25T02:12:18.121Z,16.75
2019-02-25T02:14:46.775Z,13.18
2019-02-25T02:17:15.477Z,16.40
2019-02-25T02:19:44.137Z,10.50
2019-02-25T02:22:12.789Z,12.85
2019-02-25T02:24:42.285Z,13.05
2019-02-25T02:27:10.918Z,14.75
2019-02-25T02:29:39.614Z,19.95
2019-02-25T02:32:08.279Z,13.95
2019-02-25T02:34:36.538Z,10.63
2019-02-25T02:37:05.211Z,15.85
2019-02-25T02:39:34.134Z,11.63
2019-02-25T02:42:12.707Z,14.98
2019-02-25T02:44:41.898Z,11.50
2019-02-25T02:47:34.964Z,17.12
2019-02-25T02:50:03.885Z,23.15
2019-02-25T02:52:33.183Z,11.80
2019-02-25T02:55:01.453Z,14.40
2019-02-25T02:57:30.132Z,14.87
2019-02-25T02:59:58.777Z,14.03
2019-02-25T03:02:27.444Z,16.27
2019-02-25T03:04:56.145Z,12.90
2019-02-25T03:07:24.843Z,10.43
2019-02-25T03:09:53.482Z,13.58
2019-02-25T03:12:22.129Z,9.95
2019-02-25T03:14:50.839Z,11.78
2019-02-25T03:17:19.121Z,11.90
2019-02-25T03:19:47.865Z,19.20
2019-02-25T03:22:16.712Z,15.15
2019-02-25T03:24:45.382Z,12.75
2019-02-25T03:27:14.057Z,11.65
2019-02-25T03:29:42.708Z,22.45
2019-02-25T03:32:11.646Z,12.45
2019-02-25T03:34:40.290Z,15.08
2019-02-25T03:37:08.572Z,11.18
2019-02-25T03:39:36.871Z,13.03
2019-02-25T03:42:05.576Z,11.80
2019-02-25T03:44:34.240Z,17.00
2019-02-25T03:47:02.919Z,22.85
2019-02-25T03:49:31.585Z,15.83
2019-02-25T03:52:00.294Z,20.27
2019-02-25T03:54:29.302Z,12.37
2019-02-25T03:56:58.306Z,14.85
2019-02-25T03:59:26.587Z,14.30
2019-02-25T04:01:55.262Z,18.12
2019-02-25T04:04:23.910Z,16.65
2019-02-25T04:06:52.687Z,12.68
2019-02-25T04:09:21.624Z,15.30
2019-02-25T04:11:50.285Z,15.08
2019-02-25T04:14:19.069Z,13.08
2019-02-25T04:16:47.804Z,16.02
2019-02-25T04:19:16.501Z,18.15
2019-02-25T04:21:44.784Z,13.10
2019-02-25T04:24:13.475Z,14.35
2019-02-25T04:26:42.154Z,16.52
2019-02-25T04:29:10.820Z,16.77
2019-02-25T04:31:39.545Z,14.93
2019-02-25T04:34:08.212Z,19.62
2019-02-25T04:36:36.873Z,16.42
2019-02-25T04:39:06.189Z,14.18
2019-02-25T04:41:34.833Z,12.30
2019-02-25T04:44:03.145Z,15.43
2019-02-25T04:46:31.864Z,16.02
2019-02-25T04:49:00.806Z,17.23
2019-02-25T04:51:29.455Z,21.10
2019-02-25T04:53:58.113Z,17.07
2019-02-25T04:56:26.819Z,26.25
2019-02-25T04:58:55.503Z,24.95
2019-02-25T05:01:24.169Z,25.82
2019-02-25T05:03:52.851Z,17.45
2019-02-25T05:06:21.128Z,22.70
2019-02-25T05:08:50.108Z,19.67
2019-02-25T05:11:18.903Z,19.32
2019-02-25T05:13:47.571Z,15.50
2019-02-25T05:16:16.287Z,34.92
2019-02-25T05:18:44.998Z,17.65
2019-02-25T05:21:13.725Z,19.40
2019-02-25T05:23:42.746Z,16.93
2019-02-25T05:26:11.030Z,24.67
2019-02-25T05:28:39.694Z,18.65
2019-02-25T05:31:08.385Z,20.27
2019-02-25T05:33:37.349Z,15.05
2019-02-25T05:36:06.069Z,17.52
2019-02-25T05:38:34.733Z,16.50
2019-02-25T05:41:03.384Z,18.55
2019-02-25T05:43:32.041Z,15.35
2019-02-25T05:46:00.718Z,20.10
2019-02-25T05:48:28.999Z,13.62
2019-02-25T05:50:57.855Z,16.30
2019-02-25T05:53:26.569Z,35.08
2019-02-25T05:55:55.288Z,16.20
2019-02-25T05:58:23.990Z,23.98
2019-02-25T06:00:52.753Z,16.02
2019-02-25T06:03:21.471Z,14.60
2019-02-25T06:05:50.222Z,20.92
2019-02-25T06:08:19.157Z,20.02
2019-02-25T06:10:47.450Z,17.57
2019-02-25T06:13:16.230Z,34.48
2019-02-25T06:15:45.141Z,48.05
2019-02-25T06:18:13.994Z,27.05
2019-02-25T06:20:42.645Z,31.07
2019-02-25T06:23:11.459Z,18.10
2019-02-25T06:25:40.118Z,14.93
2019-02-25T06:28:09.032Z,17.98
2019-02-25T06:30:37.938Z,16.73
2019-02-25T06:33:06.213Z,22.50
2019-02-25T06:35:34.881Z,22.45
2019-02-25T06:38:03.686Z,19.42
2019-02-25T06:40:32.368Z,23.67
2019-02-25T06:43:01.286Z,22.13
2019-02-25T06:45:31.169Z,32.55
2019-02-25T06:48:00.063Z,18.40
2019-02-25T06:50:28.810Z,21.00
2019-02-25T06:52:57.477Z,19.75
2019-02-25T06:55:25.761Z,18.70
2019-02-25T06:57:54.412Z,29.37
2019-02-25T07:00:23.103Z,21.05
2019-02-25T07:02:51.756Z,24.50
2019-02-25T07:05:37.310Z,26.70
2019-02-25T07:08:25.019Z,24.63
2019-02-25T07:11:02.801Z,33.88
2019-02-25T07:13:49.518Z,26.27
2019-02-25T07:16:31.142Z,24.98
2019-02-25T07:19:27.670Z,18.05
2019-02-25T07:22:18.258Z,24.00
2019-02-25T07:24:57.382Z,19.67
2019-02-25T07:27:54.425Z,26.12
2019-02-25T07:30:28.782Z,29.23
2019-02-25T07:33:15.790Z,19.42
2019-02-25T07:35:54.346Z,23.67
2019-02-25T07:38:39.369Z,17.77
2019-02-25T07:41:24.825Z,22.13
2019-02-25T07:44:11.708Z,21.10
2019-02-25T07:47:01.482Z,20.50
2019-02-25T07:49:38.739Z,27.70
2019-02-25T07:52:29.350Z,19.45
2019-02-25T07:55:26.134Z,18.53
2019-02-25T07:58:29.009Z,15.33
2019-02-25T08:01:22.608Z,17.00
2019-02-25T08:04:04.116Z,15.40
2019-02-25T08:06:38.746Z,15.90
2019-02-25T08:09:33.257Z,16.37
2019-02-25T08:12:26.122Z,13.47
2019-02-25T08:15:22.769Z,14.83
2019-02-25T08:18:09.111Z,16.40
2019-02-25T08:20:46.387Z,16.80
2019-02-25T08:23:24.953Z,16.43
2019-02-25T08:26:12.685Z,21.53
2019-02-25T08:29:00.432Z,19.73
2019-02-25T08:31:46.930Z,19.43
2019-02-25T08:34:26.452Z,12.30
2019-02-25T08:37:18.891Z,13.63
2019-02-25T08:39:59.157Z,15.73
2019-02-25T08:42:35.070Z,11.03
2019-02-25T08:45:12.800Z,12.00
2019-02-25T08:48:06.573Z,12.17
2019-02-25T08:50:35.216Z,10.63
2019-02-25T08:53:03.887Z,8.83
2019-02-25T08:55:32.873Z,8.07
2019-02-25T08:58:01.136Z,8.77
2019-02-25T09:00:29.884Z,15.37
2019-02-25T09:02:58.560Z,14.43
2019-02-25T09:05:27.499Z,11.43
2019-02-25T09:07:56.197Z,11.10
2019-02-25T09:10:25.180Z,22.23
2019-02-25T09:12:53.829Z,17.60
2019-02-25T09:15:22.491Z,12.67
2019-02-25T09:17:49.962Z,18.87
2019-02-25T09:20:18.316Z,12.53
2019-02-25T09:22:46.988Z,12.70
2019-02-25T09:25:15.746Z,12.80
2019-02-25T09:27:44.373Z,14.90
2019-02-25T09:30:15.284Z,14.40
2019-02-25T09:32:44.034Z,14.30
2019-02-25T09:35:12.755Z,16.03
2019-02-25T09:37:41.405Z,13.37
2019-02-25T09:40:10.356Z,15.63
2019-02-25T09:42:39.021Z,10.60
2019-02-25T09:45:09.117Z,12.90
2019-02-25T09:47:37.778Z,12.27
2019-02-25T09:50:07.518Z,13.07
2019-02-25T09:52:36.266Z,11.93
2019-02-25T09:55:05.304Z,13.00
2019-02-25T09:57:33.939Z,20.03
2019-02-25T10:00:02.631Z,27.63
2019-02-25T10:02:30.981Z,12.57
2019-02-25T10:04:59.684Z,11.33
2019-02-25T10:07:28.656Z,15.23
2019-02-25T10:09:57.393Z,13.77
2019-02-25T10:12:26.325Z,9.27
2019-02-25T10:14:54.959Z,9.87
2019-02-25T10:17:24.181Z,11.53
2019-02-25T10:19:52.883Z,11.43
2019-02-25T10:22:21.644Z,18.70
2019-02-25T10:24:49.917Z,25.03
2019-02-25T10:27:18.616Z,15.87
2019-02-25T10:29:47.368Z,14.13
2019-02-25T10:32:16.058Z,13.47
2019-02-25T10:34:44.711Z,15.73
2019-02-25T10:37:15.086Z,14.53
2019-02-25T10:39:45.324Z,18.20
2019-02-25T10:42:14.131Z,16.70
2019-02-25T10:44:42.870Z,12.27
2019-02-25T10:47:13.058Z,13.10
2019-02-25T10:49:41.586Z,12.57
2019-02-25T10:52:10.832Z,11.03
2019-02-25T10:54:41.845Z,17.60
2019-02-25T10:57:14.538Z,15.60
2019-02-25T10:59:43.191Z,15.37
2019-02-25T11:02:13.685Z,11.97
2019-02-25T11:04:42.262Z,13.63
2019-02-25T11:07:10.912Z,21.13
2019-02-25T11:09:50.466Z,23.60
2019-02-25T11:12:19.267Z,17.00
2019-02-25T11:14:47.924Z,22.40
2019-02-25T11:17:18.202Z,20.83
2019-02-25T11:19:47.020Z,22.70
2019-02-25T11:22:16.369Z,14.50
2019-02-25T11:24:46.858Z,13.07
2019-02-25T11:27:15.669Z,13.10
2019-02-25T11:29:45.729Z,10.47
2019-02-25T11:32:14.598Z,15.90
2019-02-25T11:34:43.253Z,16.30
2019-02-25T11:37:11.909Z,15.40
2019-02-25T11:39:40.866Z,11.90
2019-02-25T11:42:10.828Z,18.60
2019-02-25T11:44:39.950Z,16.70
2019-02-25T11:47:08.778Z,12.80
2019-02-25T11:49:37.446Z,11.47
2019-02-25T11:52:05.839Z,14.57
2019-02-25T11:54:34.526Z,16.30
2019-02-25T11:57:03.540Z,13.13
2019-02-25T11:59:32.200Z,16.40
2019-02-25T12:02:00.922Z,15.23
2019-02-25T12:04:29.600Z,13.43
2019-02-25T12:06:58.286Z,14.60
2019-02-25T12:09:26.937Z,14.43
2019-02-25T12:11:55.610Z,11.40
2019-02-25T12:14:23.921Z,11.30
2019-02-25T12:16:52.595Z,12.70
2019-02-25T12:19:21.398Z,11.80
2019-02-25T12:21:50.063Z,11.70
2019-02-25T12:24:18.728Z,12.03
2019-02-25T12:26:47.382Z,15.83
2019-02-25T12:29:16.301Z,18.80
2019-02-25T12:31:44.959Z,14.03
2019-02-25T12:34:13.622Z,12.70
2019-02-25T12:36:41.963Z,7.57
2019-02-25T12:39:10.979Z,12.60
2019-02-25T12:41:39.750Z,7.10
2019-02-25T12:44:08.482Z,5.07
2019-02-25T12:46:37.130Z,5.33
2019-02-25T12:49:05.836Z,6.07
2019-02-25T12:51:34.476Z,6.47
2019-02-25T12:54:03.201Z,13.93
2019-02-25T12:56:31.854Z,4.27
2019-02-25T12:59:00.245Z,27.83
2019-02-25T13:01:28.989Z,15.30
2019-02-25T13:03:57.649Z,6.23
2019-02-25T13:06:26.595Z,7.43
2019-02-25T13:08:55.705Z,3.17
2019-02-25T13:11:24.679Z,3.93
2019-02-25T13:13:53.421Z,8.20
2019-02-25T13:16:22.071Z,4.03
2019-02-25T13:18:50.458Z,5.23
2019-02-25T13:21:19.162Z,13.70
2019-02-25T13:23:47.832Z,9.77
2019-02-25T13:26:16.500Z,4.07
2019-02-25T13:28:45.205Z,10.00
2019-02-25T13:31:14.175Z,7.00
2019-02-25T13:33:42.898Z,9.30
2019-02-25T13:36:12.830Z,8.80
2019-02-25T13:38:41.595Z,3.90
2019-02-25T13:41:10.152Z,2.90
2019-02-25T13:43:38.952Z,10.87
2019-02-25T13:46:07.830Z,10.03
2019-02-25T13:48:36.563Z,17.17
2019-02-25T13:51:05.226Z,5.43
2019-02-25T13:53:33.949Z,7.77
2019-02-25T13:56:02.693Z,10.60
2019-02-25T13:58:31.883Z,13.13
2019-02-25T14:01:00.780Z,4.07
2019-02-25T14:03:29.133Z,6.53
2019-02-25T14:05:57.869Z,6.40
2019-02-25T14:08:26.808Z,5.00
2019-02-25T14:10:55.633Z,6.90
2019-02-25T14:13:24.308Z,3.47
2019-02-25T14:15:53.266Z,6.80
2019-02-25T14:18:22.265Z,5.57
2019-02-25T14:20:51.283Z,6.83
2019-02-25T14:23:20.420Z,13.87
2019-02-25T14:25:48.749Z,9.13
2019-02-25T14:28:17.402Z,7.97
2019-02-25T14:30:46.059Z,8.40
2019-02-25T14:33:14.936Z,9.47
2019-02-25T14:35:43.722Z,9.07
2019-02-25T14:38:15.933Z,8.80
2019-02-25T14:40:44.816Z,6.43
2019-02-25T14:43:15.621Z,11.87
2019-02-25T14:45:46.024Z,7.80
2019-02-25T14:48:18.231Z,8.33
2019-02-25T14:50:44.303Z,6.50
2019-02-25T14:53:14.320Z,8.07
2019-02-25T14:55:46.948Z,8.37
2019-02-25T14:58:15.513Z,9.43
2019-02-25T15:00:44.079Z,6.60
2019-02-25T15:03:12.786Z,10.57
2019-02-25T15:05:41.974Z,8.07
2019-02-25T15:08:10.401Z,9.90
2019-02-25T15:10:40.692Z,6.53
2019-02-25T15:13:10.547Z,10.47
2019-02-25T15:15:41.285Z,6.00
2019-02-25T15:18:10.072Z,9.40
2019-02-25T15:20:38.712Z,9.53
2019-02-25T15:23:07.900Z,8.70
2019-02-25T15:25:40.394Z,9.63
2019-02-25T15:28:09.415Z,18.43
2019-02-25T15:30:37.425Z,10.07
2019-02-25T15:33:07.016Z,15.27
2019-02-25T15:35:37.125Z,8.40
2019-02-25T15:38:06.172Z,14.97
2019-02-25T15:40:34.852Z,13.47
2019-02-25T15:43:12.572Z,16.30
2019-02-25T15:45:41.992Z,8.57
2019-02-25T15:48:17.840Z,12.00
2019-02-25T15:50:48.425Z,14.23
2019-02-25T15:53:18.104Z,9.13
2019-02-25T15:55:46.375Z,9.47
2019-02-25T15:58:15.414Z,27.40
2019-02-25T16:00:44.643Z,17.20
2019-02-25T16:03:13.703Z,57.00
2019-02-25T16:05:44.429Z,12.20
2019-02-25T16:08:16.130Z,13.97
2019-02-25T16:10:44.481Z,16.50
2019-02-25T16:13:14.284Z,8.63
2019-02-25T16:15:43.115Z,12.97
2019-02-25T16:18:13.646Z,11.90
2019-02-25T16:20:45.952Z,9.13
2019-02-25T16:23:13.026Z,10.07
2019-02-25T16:25:42.130Z,8.00
2019-02-25T16:28:14.435Z,8.50
2019-02-25T16:30:42.435Z,16.93
2019-02-25T16:33:14.352Z,13.33
2019-02-25T16:35:43.621Z,19.43
2019-02-25T16:38:12.694Z,10.70
2019-02-25T16:40:41.038Z,15.30
2019-02-25T16:43:12.503Z,12.43
2019-02-25T16:45:41.945Z,15.03
2019-02-25T16:48:10.673Z,12.30
2019-02-25T16:50:41.528Z,21.50
2019-02-25T16:53:10.875Z,12.20
2019-02-25T16:55:42.174Z,8.67
2019-02-25T16:58:13.189Z,18.83
2019-02-25T17:00:41.898Z,23.87
2019-02-25T17:03:11.140Z,12.07
2019-02-25T17:05:42.880Z,22.27
2019-02-25T17:08:14.696Z,21.00
2019-02-25T17:10:43.606Z,13.93
2019-02-25T17:13:14.318Z,22.77
2019-02-25T17:15:45.937Z,18.90
2019-02-25T17:18:15.804Z,16.40
2019-02-25T17:20:45.125Z,12.17
2019-02-25T17:23:14.507Z,20.87
2019-02-25T17:25:43.540Z,12.67
2019-02-25T17:28:15.237Z,16.50
2019-02-25T17:30:45.613Z,15.17
2019-02-25T17:33:14.841Z,10.73
2019-02-25T17:35:45.326Z,24.43
2019-02-25T17:38:14.180Z,16.20
2019-02-25T17:40:43.090Z,12.63
2019-02-25T17:43:13.971Z,29.20
2019-02-25T17:45:43.071Z,16.33
2019-02-25T17:48:13.685Z,14.53
2019-02-25T17:50:42.287Z,31.17
2019-02-25T17:53:11.014Z,27.87
2019-02-25T17:55:39.849Z,22.63
2019-02-25T17:58:09.167Z,23.77
2019-02-25T18:00:42.257Z,19.93
2019-02-25T18:03:10.213Z,16.37
2019-02-25T18:05:40.667Z,22.30
2019-02-25T18:08:14.566Z,16.70
2019-02-25T18:10:42.862Z,17.33
2019-02-25T18:13:11.485Z,17.20
2019-02-25T18:15:40.526Z,26.50
2019-02-25T18:18:11.826Z,26.13
2019-02-25T18:20:39.731Z,37.47
2019-02-25T18:23:08.574Z,38.20
2019-02-25T18:25:37.625Z,18.83
2019-02-25T18:28:08.526Z,15.07
2019-02-25T18:30:38.505Z,12.00
2019-02-25T18:33:07.037Z,19.07
2019-02-25T18:35:38.220Z,23.47
2019-02-25T18:38:07.624Z,31.20
2019-02-25T18:40:40.142Z,28.03
2019-02-25T18:43:07.640Z,20.10
2019-02-25T18:45:38.440Z,25.20
2019-02-25T18:48:07.297Z,27.60
2019-02-25T18:50:36.360Z,16.80
2019-02-25T18:53:05.136Z,34.13
2019-02-25T18:55:34.224Z,35.10
2019-02-25T18:58:05.058Z,35.60
2019-02-25T19:00:36.973Z,52.13
2019-02-25T19:03:05.876Z,28.80
2019-02-25T19:05:34.590Z,28.87
2019-02-25T19:08:04.913Z,20.00
2019-02-25T19:10:33.633Z,12.83
2019-02-25T19:13:02.770Z,9.43
2019-02-25T19:15:31.151Z,16.90
2019-02-25T19:17:59.796Z,21.43
2019-02-25T19:20:28.647Z,13.00
2019-02-25T19:23:00.477Z,9.43
2019-02-25T19:25:28.063Z,16.43
2019-02-25T19:27:58.610Z,12.77
2019-02-25T19:30:29.351Z,7.97
2019-02-25T19:32:57.837Z,25.13
2019-02-25T19:35:28.714Z,21.33
2019-02-25T19:37:57.067Z,8.60
2019-02-25T19:40:25.768Z,9.40
2019-02-25T19:42:56.721Z,13.97
2019-02-25T19:45:25.040Z,10.83
2019-02-25T19:47:55.980Z,9.40
2019-02-25T19:50:25.961Z,15.50
2019-02-25T19:52:54.903Z,9.10
2019-02-25T19:55:23.937Z,15.60
2019-02-25T19:57:52.597Z,55.23
2019-02-25T20:00:25.711Z,662.43
2019-02-25T20:03:04.788Z,889.47
2019-02-25T20:05:27.105Z,811.37
2019-02-25T20:07:55.805Z,718.10
2019-02-25T20:10:24.934Z,420.60
2019-02-25T20:12:53.861Z,467.50
2019-02-25T20:15:25.049Z,206.20
2019-02-25T20:17:55.193Z,111.30
2019-02-25T20:20:25.429Z,66.03
2019-02-25T20:22:53.725Z,42.23
2019-02-25T20:25:24.650Z,63.23
2019-02-25T20:27:54.993Z,226.53
2019-02-25T20:30:25.741Z,310.00
2019-02-25T20:32:54.652Z,199.63
2019-02-25T20:35:24.584Z,129.23
2019-02-25T20:37:55.495Z,74.40
2019-02-25T20:40:26.015Z,107.53
2019-02-25T20:42:56.088Z,94.95
2019-02-25T20:45:25.233Z,58.27
2019-02-25T20:47:56.987Z,58.17
2019-02-25T20:50:25.203Z,57.10
2019-02-25T20:52:55.854Z,38.27
2019-02-25T20:55:25.319Z,42.50
2019-02-25T20:57:54.963Z,26.45
2019-02-25T21:00:23.949Z,38.95
2019-02-25T21:02:52.757Z,22.70
2019-02-25T21:05:22.772Z,55.55
2019-02-25T21:07:53.359Z,126.83
2019-02-25T21:10:22.737Z,64.07
2019-02-25T21:12:54.599Z,31.65
2019-02-25T21:15:23.121Z,30.35
2019-02-25T21:17:52.162Z,28.05
2019-02-25T21:20:23.676Z,30.15
2019-02-25T21:22:57.304Z,34.73
2019-02-25T21:25:26.397Z,29.20
2019-02-25T21:27:57.179Z,34.53
2019-02-25T21:30:24.167Z,17.65
2019-02-25T21:32:54.356Z,21.07
2019-02-25T21:35:25.550Z,22.87
2019-02-25T21:37:54.624Z,17.85
2019-02-25T21:40:25.048Z,21.77
2019-02-25T21:42:56.352Z,21.70
2019-02-25T21:45:27.084Z,27.30
2019-02-25T21:47:56.536Z,36.48
2019-02-25T21:50:28.358Z,16.50
2019-02-25T21:52:56.167Z,18.70
2019-02-25T21:55:26.229Z,24.07
2019-02-25T21:57:57.239Z,23.60
2019-02-25T22:00:27.087Z,21.52
2019-02-25T22:02:56.659Z,28.10
2019-02-25T22:05:25.384Z,33.20
2019-02-25T22:07:56.647Z,37.13
2019-02-25T22:10:24.528Z,28.05
2019-02-25T22:12:53.228Z,54.55
2019-02-25T22:15:22.410Z,29.77
2019-02-25T22:17:53.386Z,30.23
2019-02-25T22:20:23.350Z,127.80
2019-02-25T22:22:56.698Z,30.50
2019-02-25T22:25:23.000Z,68.75
2019-02-25T22:27:51.724Z,32.85
2019-02-25T22:30:20.424Z,38.85
2019-02-25T22:32:49.212Z,27.77
2019-02-25T22:35:17.899Z,25.62
2019-02-25T22:37:49.295Z,23.35
2019-02-25T22:40:17.323Z,23.15
2019-02-25T22:42:47.987Z,38.42
2019-02-25T22:45:18.606Z,28.25
2019-02-25T22:47:47.125Z,36.53
2019-02-25T22:50:15.845Z,37.17
2019-02-25T22:52:44.540Z,38.08
2019-02-25T22:55:15.323Z,42.03
2019-02-25T22:57:45.734Z,29.80
2019-02-25T23:00:15.541Z,27.13
2019-02-25T23:02:45.207Z,34.50
2019-02-25T23:05:18.577Z,29.77
2019-02-25T23:07:48.028Z,26.52
2019-02-25T23:10:17.444Z,26.15
2019-02-25T23:12:47.118Z,25.95
2019-02-25T23:15:15.786Z,34.88
2019-02-25T23:17:46.133Z,28.55
2019-02-25T23:20:14.507Z,30.62
2019-02-25T23:22:43.582Z,38.85
2019-02-25T23:25:12.562Z,27.67
2019-02-25T23:27:41.224Z,31.33
2019-02-25T23:30:09.973Z,30.05
2019-02-25T23:32:39.454Z,33.38
2019-02-25T23:35:11.463Z,38.63
2019-02-25T23:37:38.854Z,33.85
2019-02-25T23:40:09.500Z,30.20
2019-02-25T23:42:39.668Z,29.25
2019-02-25T23:45:08.805Z,32.80
2019-02-25T23:47:39.550Z,35.30
2019-02-25T23:50:10.539Z,40.45
2019-02-25T23:52:39.185Z,37.35
2019-02-25T23:55:12.169Z,31.82
2019-02-25T23:57:39.036Z,37.40
